Terminal Aerodrome Forecast
Issued by NWS Shreveport, LA

Home | Current Version | Previous Version | Text Only | Print | Product List | Glossary On
Versions: 1 2 3 4 5 6 7 8 9 10 11 12 13
000
FTUS44 KSHV 312000 AAA
TAFGGG
TAF AMD
KGGG 312045Z 3121/0118 13010KT P6SM SCT100 BKN250
      TEMPO 3122/3124 BKN030
     FM010000 15012G18KT P6SM OVC030
      TEMPO 0102/0106 5SM -RA BR OVC015
     FM010600 17012G20KT 3SM RA BR OVC008
     FM011400 24014G22KT P6SM VCTS OVC020CB=

USA.gov is the U.S. government's official web portal to all federal, state and local government web resources and services.